Chantal — A8WQ3 — position and weather

sailwx.info

Track history (hours):
 
Tides and Currents Weather Stations Pressure Air Temp Water Temp Dewpoint Dewpoint Depression Visibility Wind Speed Wind Dir Waves Ship Positions

Chantal

Last reported at 2016-Aug-26 04:32 UTC. Time now 2016-Aug-26 06:49 UTC.
Position N 32°01' W 119°11'.

Length 228 m; draft 8.2 m.

Type: Tanker. MMSI: 636014805.

Date/timePositionNaut miles runAvg speedWind from/ knotsBaromVisibWave heightAir tempDewpointWater temp
2016-Aug-26 04:32N 32°01' W 119°11'1 1.5
2016-Aug-26 03:33N 32°02' W 119°13'1 1.4
2016-Aug-26 02:33N 32°03' W 119°14'1 1.4
2016-Aug-26 01:34N 32°03' W 119°15'1 1.3
2016-Aug-26 00:33N 32°04' W 119°16'1 1.3
2016-Aug-25 23:31N 32°05' W 119°18'1 1.0
2016-Aug-25 22:32N 32°05' W 119°18'2 1.5
2016-Aug-25 21:31N 32°06' W 119°20'1 1.3
2016-Aug-25 20:33N 32°07' W 119°21'1 1.3
2016-Aug-25 19:33N 32°07' W 119°23'2 1.5
2016-Aug-25 18:33N 32°08' W 119°25'1 1.1
2016-Aug-25 17:34N 32°08' W 119°26'2 2.2
2016-Aug-25 16:34N 32°09' W 119°28'5 5.2
2016-Aug-25 15:33N 32°11' W 119°34'7 6.8
2016-Aug-25 14:33N 32°14' W 119°41'2 2.2
2016-Aug-25 13:31N 32°15' W 119°44'2 1.9
2016-Aug-25 12:33N 32°15' W 119°42'4 4.5
2016-Aug-25 11:34N 32°17' W 119°37'1 1.5
2016-Aug-25 10:34N 32°17' W 119°39'1 1.1
2016-Aug-25 09:34N 32°17' W 119°40'1 1.0
2016-Aug-25 08:34N 32°17' W 119°41'1 0.9
2016-Aug-25 07:33N 32°17' W 119°42'2 2.2
2016-Aug-25 06:34N 32°15' W 119°43'18 9.1
2016-Aug-25 04:33N 31°57' W 119°46'1 1.5
2016-Aug-25 03:34N 31°58' W 119°48'2 1.6
2016-Aug-25 02:27N 31°59' W 119°49'2 1.6
2016-Aug-25 01:21N 32°00' W 119°51'1 1.4
2016-Aug-25 00:34N 32°01' W 119°52'2 1.5
2016-Aug-24 23:33N 32°02' W 119°53'2 1.6
2016-Aug-24 22:08N 32°03' W 119°55'1 1.8
2016-Aug-24 21:33N 32°04' W 119°56'2 2.1
2016-Aug-24 20:33N 32°06' W 119°58'2 2.0
2016-Aug-24 19:33N 32°07' W 119°59'2 1.9
2016-Aug-24 18:34N 32°08' W 120°01'2 1.8
2016-Aug-24 17:33N 32°09' W 120°03'2 1.7
2016-Aug-24 16:34N 32°09' W 120°05'3 2.7
2016-Aug-24 15:34N 32°07' W 120°06'4 4.0
2016-Aug-24 14:34N 32°07' W 120°11'1313.1
2016-Aug-24 13:34N 32°13' W 120°25'1313.3
2016-Aug-24 12:34N 32°20' W 120°38'1313.1
2016-Aug-24 11:34N 32°26' W 120°52'1313.4
2016-Aug-24 10:34N 32°33' W 121°05'1713.3
2016-Aug-24 09:17N 32°42' W 121°22'1013.3
2016-Aug-24 08:33N 32°47' W 121°32'2612.9
2016-Aug-24 06:33N 32°59' W 121°59'4711.9
2016-Aug-24 02:33N 33°33' W 122°38'20 6.3
2016-Aug-23 23:24N 33°52' W 122°47'47 6.6
2016-Aug-23 16:10N 34°39' W 122°51'8 7.5
2016-Aug-23 15:05N 34°47' W 122°53'713.2
2016-Aug-23 14:33N 34°54' W 122°53'5213.0
2016-Aug-23 10:33N 35°46' W 122°59'1313.0
2016-Aug-23 09:34N 35°59' W 122°60'1312.9
2016-Aug-23 08:33N 36°12' W 123°02'1313.1
2016-Aug-23 07:33N 36°25' W 123°03'1312.9
2016-Aug-23 06:34N 36°38' W 123°04'1313.0
2016-Aug-23 05:34N 36°51' W 123°06'1312.8
2016-Aug-23 04:33N 37°04' W 123°07'1313.0
2016-Aug-23 03:34N 37°17' W 123°08'1312.8
2016-Aug-23 02:34N 37°29' W 123°09'1313.2
2016-Aug-23 01:34N 37°38' W 122°57'1313.2
2016-Aug-23 00:34N 37°44' W 122°42'1211.9
2016-Aug-22 23:34N 37°49' W 122°28'9 8.3
2016-Aug-22 22:32N 37°44' W 122°20'0 0.0
2016-Aug-22 21:32N 37°44' W 122°20'0 0.0
2016-Aug-22 20:32N 37°44' W 122°20'0 0.0
2016-Aug-22 19:32N 37°44' W 122°20'0 0.0
2016-Aug-22 18:32N 37°44' W 122°20'0 0.0
2016-Aug-22 17:32N 37°44' W 122°20'0 0.2
2016-Aug-22 16:32N 37°44' W 122°20'0 0.0
2016-Aug-22 15:32N 37°44' W 122°20'0 0.0
2016-Aug-22 14:32N 37°44' W 122°20'0 0.0
2016-Aug-22 13:32N 37°44' W 122°20'0 0.0
2016-Aug-22 12:32N 37°44' W 122°20'0 0.1
2016-Aug-22 11:32N 37°44' W 122°20'0 0.2
2016-Aug-22 10:32N 37°44' W 122°20'0 0.0
2016-Aug-22 09:32N 37°44' W 122°20'0 0.0
2016-Aug-22 08:32N 37°44' W 122°20'0 0.0
2016-Aug-22 07:32N 37°44' W 122°20'0 0.0
2016-Aug-22 06:32N 37°44' W 122°20'0 0.0
2016-Aug-22 05:32N 37°44' W 122°20'0 0.2
2016-Aug-22 04:32N 37°44' W 122°20'0 0.1
2016-Aug-22 03:32N 37°44' W 122°20'0 0.0
2016-Aug-22 02:32N 37°44' W 122°20'0 0.0
2016-Aug-22 01:32N 37°44' W 122°20'0 0.1
2016-Aug-22 00:32N 37°44' W 122°20'0 0.2
2016-Aug-21 23:32N 37°44' W 122°20'0 0.1
2016-Aug-21 22:32N 37°44' W 122°20'0 0.1
2016-Aug-21 21:32N 37°44' W 122°20'0 0.0
2016-Aug-21 20:32N 37°44' W 122°20'0 0.0
2016-Aug-21 19:29N 37°44' W 122°20'0 0.0
2016-Aug-21 18:32N 37°44' W 122°20'0 0.0
2016-Aug-21 17:32N 37°44' W 122°20'0 0.1
2016-Aug-21 16:32N 37°44' W 122°20'0 0.2
2016-Aug-21 15:32N 37°44' W 122°20'0 0.0
2016-Aug-21 14:32N 37°44' W 122°20'0 0.0
2016-Aug-21 13:32N 37°44' W 122°20'0 0.0
2016-Aug-21 12:32N 37°44' W 122°20'0 0.0
2016-Aug-21 11:32N 37°44' W 122°20'0 0.1
2016-Aug-21 10:32N 37°44' W 122°20'0 0.1
2016-Aug-21 09:29N 37°44' W 122°20'0 0.1
2016-Aug-21 08:32N 37°44' W 122°20'0 0.0
2016-Aug-21 07:32N 37°44' W 122°20'0 0.0
2016-Aug-21 06:32N 37°44' W 122°20'0 0.0
2016-Aug-21 05:32N 37°44' W 122°20'0 0.1
2016-Aug-21 04:32N 37°44' W 122°20'0 0.2
2016-Aug-21 03:32N 37°44' W 122°20'0 0.1
2016-Aug-21 02:32N 37°44' W 122°20'0 0.0
2016-Aug-21 01:32N 37°44' W 122°20'0 0.0
2016-Aug-21 00:32N 37°44' W 122°20'0 0.1
2016-Aug-20 23:32N 37°44' W 122°20'0 0.1
2016-Aug-20 22:32N 37°44' W 122°20'0 0.1
2016-Aug-20 21:32N 37°44' W 122°20'0 0.0
2016-Aug-20 20:32N 37°44' W 122°20'0 0.0
2016-Aug-20 19:32N 37°44' W 122°20'0 0.0
2016-Aug-20 18:29N 37°44' W 122°20'0 0.0
2016-Aug-20 17:32N 37°44' W 122°20'0 0.0
2016-Aug-20 16:32N 37°44' W 122°20'0 0.2
2016-Aug-20 15:33N 37°44' W 122°20'8 7.6
2016-Aug-20 14:33N 37°51' W 122°25'1312.8
2016-Aug-20 13:33N 38°03' W 122°19'10 7.7
2016-Aug-20 12:19N 38°02' W 122°07'0 0.0
2016-Aug-20 11:25N 38°02' W 122°07'0 0.0
2016-Aug-20 10:31N 38°02' W 122°07'0 0.0
2016-Aug-19 07:33N 38°02' W 122°07'4 3.7
2016-Aug-19 06:32N 38°03' W 122°12'9 9.1
2016-Aug-19 05:33N 38°02' W 122°23'10 9.6
2016-Aug-19 04:34N 37°52' W 122°25'7 7.0
2016-Aug-19 03:31N 37°45' W 122°21'0 0.2
2016-Aug-19 02:31N 37°46' W 122°21'0 0.2
2016-Aug-19 01:31N 37°46' W 122°21'0 0.0
2016-Aug-19 00:31N 37°46' W 122°21'0 0.0
2016-Aug-18 23:31N 37°46' W 122°21'0 0.1
2016-Aug-18 22:31N 37°46' W 122°21'0 0.2
2016-Aug-18 21:31N 37°45' W 122°21'0 0.1
2016-Aug-18 20:31N 37°45' W 122°21'0 0.0
2016-Aug-18 19:31N 37°45' W 122°21'0 0.0
2016-Aug-18 18:31N 37°45' W 122°21'0 0.0
2016-Aug-18 17:31N 37°45' W 122°21'1 0.9
2016-Aug-18 16:33N 37°46' W 122°22'8 8.5
2016-Aug-18 15:34N 37°47' W 122°32'1110.5
2016-Aug-18 14:33N 37°43' W 122°44'9 8.5
2016-Aug-18 13:33N 37°37' W 122°53'9 8.7
2016-Aug-18 12:33N 37°33' W 123°02'9 8.3
2016-Aug-18 11:31N 37°24' W 123°03'8 8.3
2016-Aug-18 10:33N 37°17' W 122°58'8 7.9
2016-Aug-18 09:33N 37°10' W 122°54'8 8.4
2016-Aug-18 08:33N 37°02' W 122°50'8 8.1
2016-Aug-18 07:34N 36°55' W 122°45'8 8.1
2016-Aug-18 06:34N 36°47' W 122°42'8 8.0
2016-Aug-18 05:33N 36°40' W 122°38'8 8.3
2016-Aug-18 04:33N 36°32' W 122°34'8 8.1
2016-Aug-18 03:33N 36°25' W 122°29'1111.0
2016-Aug-18 02:33N 36°15' W 122°24'1111.2
2016-Aug-18 01:33N 36°05' W 122°17'1110.9
2016-Aug-18 00:33N 35°55' W 122°12'9 9.0
2016-Aug-17 23:33N 35°47' W 122°07'8 7.7
2016-Aug-17 22:33N 35°40' W 122°03'8 7.8
2016-Aug-17 21:33N 35°33' W 121°59'8 7.5
2016-Aug-17 20:33N 35°26' W 121°55'9 9.2
2016-Aug-17 19:33N 35°18' W 121°50'10 9.9
2016-Aug-17 18:33N 35°09' W 121°46'1010.1
2016-Aug-17 17:33N 35°00' W 121°39'1010.2
2016-Aug-17 16:33N 34°51' W 121°34'1211.7
2016-Aug-17 15:33N 34°40' W 121°28'1511.7
2016-Aug-17 14:19N 34°27' W 121°21'3211.5
2016-Aug-17 11:34N 33°59' W 121°04'1111.4
2016-Aug-17 10:33N 33°49' W 120°57'1110.9
2016-Aug-17 09:33N 33°39' W 120°50'1111.0
2016-Aug-17 08:33N 33°30' W 120°43'1111.1
2016-Aug-17 07:33N 33°21' W 120°36'1110.9
2016-Aug-17 06:33N 33°12' W 120°29'1111.1
2016-Aug-17 05:33N 33°02' W 120°22'1210.9
2016-Aug-17 04:28N 32°52' W 120°14'1110.8
2016-Aug-17 03:25N 32°43' W 120°07'910.9
2016-Aug-17 02:33N 32°35' W 120°01'1111.0
2016-Aug-17 01:34N 32°26' W 119°54'1211.3
2016-Aug-17 00:31N 32°16' W 119°46'1111.3
2016-Aug-16 23:33N 32°07' W 119°40'1211.6
2016-Aug-16 22:33N 31°57' W 119°32'1111.5
2016-Aug-16 21:33N 31°47' W 119°25'1211.6
2016-Aug-16 20:33N 31°37' W 119°17'1211.6
2016-Aug-16 19:34N 31°28' W 119°10'1211.7
2016-Aug-16 18:33N 31°18' W 119°03'1211.6
2016-Aug-16 17:34N 31°08' W 118°55'1211.9
2016-Aug-16 16:33N 30°59' W 118°47'1211.9
2016-Aug-16 15:33N 30°49' W 118°39'1212.2
2016-Aug-16 14:33N 30°40' W 118°30'1212.0
2016-Aug-16 13:33N 30°30' W 118°21'1211.6
2016-Aug-16 12:31N 30°21' W 118°12'1111.3
2016-Aug-16 11:31N 30°12' W 118°04'1111.5
2016-Aug-16 10:34N 30°04' W 117°56'1211.7
2016-Aug-16 09:33N 29°54' W 117°47'1311.9
2016-Aug-16 08:29N 29°44' W 117°38'2312.1
2016-Aug-16 06:33N 29°26' W 117°21'2512.4
2016-Aug-16 04:32N 29°07' W 117°03'  
Track history (hours):
 
Tides and Currents Weather Stations Pressure Air Temp Water Temp Dewpoint Dewpoint Depression Visibility Wind Speed Wind Dir Waves Ship Positions

Chantal

Last reported at 2016-Aug-26 04:32 UTC. Time now 2016-Aug-26 06:49 UTC.
Position N 32°01' W 119°11'.

Length 228 m; draft 8.2 m.

Type: Tanker. MMSI: 636014805.

Date/timePositionNaut miles runAvg speedWind from/ knotsBaromVisibWave heightAir tempDewpointWater temp
2016-Aug-26 04:32N 32°01' W 119°11'1 1.5
2016-Aug-26 03:33N 32°02' W 119°13'1 1.4
2016-Aug-26 02:33N 32°03' W 119°14'1 1.4
2016-Aug-26 01:34N 32°03' W 119°15'1 1.3
2016-Aug-26 00:33N 32°04' W 119°16'1 1.3
2016-Aug-25 23:31N 32°05' W 119°18'1 1.0
2016-Aug-25 22:32N 32°05' W 119°18'2 1.5
2016-Aug-25 21:31N 32°06' W 119°20'1 1.3
2016-Aug-25 20:33N 32°07' W 119°21'1 1.3
2016-Aug-25 19:33N 32°07' W 119°23'2 1.5
2016-Aug-25 18:33N 32°08' W 119°25'1 1.1
2016-Aug-25 17:34N 32°08' W 119°26'2 2.2
2016-Aug-25 16:34N 32°09' W 119°28'5 5.2
2016-Aug-25 15:33N 32°11' W 119°34'7 6.8
2016-Aug-25 14:33N 32°14' W 119°41'2 2.2
2016-Aug-25 13:31N 32°15' W 119°44'2 1.9
2016-Aug-25 12:33N 32°15' W 119°42'4 4.5
2016-Aug-25 11:34N 32°17' W 119°37'1 1.5
2016-Aug-25 10:34N 32°17' W 119°39'1 1.1
2016-Aug-25 09:34N 32°17' W 119°40'1 1.0
2016-Aug-25 08:34N 32°17' W 119°41'1 0.9
2016-Aug-25 07:33N 32°17' W 119°42'2 2.2
2016-Aug-25 06:34N 32°15' W 119°43'18 9.1
2016-Aug-25 04:33N 31°57' W 119°46'1 1.5
2016-Aug-25 03:34N 31°58' W 119°48'2 1.6
2016-Aug-25 02:27N 31°59' W 119°49'2 1.6
2016-Aug-25 01:21N 32°00' W 119°51'1 1.4
2016-Aug-25 00:34N 32°01' W 119°52'2 1.5
2016-Aug-24 23:33N 32°02' W 119°53'2 1.6
2016-Aug-24 22:08N 32°03' W 119°55'1 1.8
2016-Aug-24 21:33N 32°04' W 119°56'2 2.1
2016-Aug-24 20:33N 32°06' W 119°58'2 2.0
2016-Aug-24 19:33N 32°07' W 119°59'2 1.9
2016-Aug-24 18:34N 32°08' W 120°01'2 1.8
2016-Aug-24 17:33N 32°09' W 120°03'2 1.7
2016-Aug-24 16:34N 32°09' W 120°05'3 2.7
2016-Aug-24 15:34N 32°07' W 120°06'4 4.0
2016-Aug-24 14:34N 32°07' W 120°11'1313.1
2016-Aug-24 13:34N 32°13' W 120°25'1313.3
2016-Aug-24 12:34N 32°20' W 120°38'1313.1
2016-Aug-24 11:34N 32°26' W 120°52'1313.4
2016-Aug-24 10:34N 32°33' W 121°05'1713.3
2016-Aug-24 09:17N 32°42' W 121°22'1013.3
2016-Aug-24 08:33N 32°47' W 121°32'2612.9
2016-Aug-24 06:33N 32°59' W 121°59'4711.9
2016-Aug-24 02:33N 33°33' W 122°38'20 6.3
2016-Aug-23 23:24N 33°52' W 122°47'47 6.6
2016-Aug-23 16:10N 34°39' W 122°51'8 7.5
2016-Aug-23 15:05N 34°47' W 122°53'713.2
2016-Aug-23 14:33N 34°54' W 122°53'5213.0
2016-Aug-23 10:33N 35°46' W 122°59'1313.0
2016-Aug-23 09:34N 35°59' W 122°60'1312.9
2016-Aug-23 08:33N 36°12' W 123°02'1313.1
2016-Aug-23 07:33N 36°25' W 123°03'1312.9
2016-Aug-23 06:34N 36°38' W 123°04'1313.0
2016-Aug-23 05:34N 36°51' W 123°06'1312.8
2016-Aug-23 04:33N 37°04' W 123°07'1313.0
2016-Aug-23 03:34N 37°17' W 123°08'1312.8
2016-Aug-23 02:34N 37°29' W 123°09'1313.2
2016-Aug-23 01:34N 37°38' W 122°57'1313.2
2016-Aug-23 00:34N 37°44' W 122°42'1211.9
2016-Aug-22 23:34N 37°49' W 122°28'9 8.3
2016-Aug-22 22:32N 37°44' W 122°20'0 0.0
2016-Aug-22 21:32N 37°44' W 122°20'0 0.0
2016-Aug-22 20:32N 37°44' W 122°20'0 0.0
2016-Aug-22 19:32N 37°44' W 122°20'0 0.0
2016-Aug-22 18:32N 37°44' W 122°20'0 0.0
2016-Aug-22 17:32N 37°44' W 122°20'0 0.2
2016-Aug-22 16:32N 37°44' W 122°20'0 0.0
2016-Aug-22 15:32N 37°44' W 122°20'0 0.0
2016-Aug-22 14:32N 37°44' W 122°20'0 0.0
2016-Aug-22 13:32N 37°44' W 122°20'0 0.0
2016-Aug-22 12:32N 37°44' W 122°20'0 0.1
2016-Aug-22 11:32N 37°44' W 122°20'0 0.2
2016-Aug-22 10:32N 37°44' W 122°20'0 0.0
2016-Aug-22 09:32N 37°44' W 122°20'0 0.0
2016-Aug-22 08:32N 37°44' W 122°20'0 0.0
2016-Aug-22 07:32N 37°44' W 122°20'0 0.0
2016-Aug-22 06:32N 37°44' W 122°20'0 0.0
2016-Aug-22 05:32N 37°44' W 122°20'0 0.2
2016-Aug-22 04:32N 37°44' W 122°20'0 0.1
2016-Aug-22 03:32N 37°44' W 122°20'0 0.0
2016-Aug-22 02:32N 37°44' W 122°20'0 0.0
2016-Aug-22 01:32N 37°44' W 122°20'0 0.1
2016-Aug-22 00:32N 37°44' W 122°20'0 0.2
2016-Aug-21 23:32N 37°44' W 122°20'0 0.1
2016-Aug-21 22:32N 37°44' W 122°20'0 0.1
2016-Aug-21 21:32N 37°44' W 122°20'0 0.0
2016-Aug-21 20:32N 37°44' W 122°20'0 0.0
2016-Aug-21 19:29N 37°44' W 122°20'0 0.0
2016-Aug-21 18:32N 37°44' W 122°20'0 0.0
2016-Aug-21 17:32N 37°44' W 122°20'0 0.1
2016-Aug-21 16:32N 37°44' W 122°20'0 0.2
2016-Aug-21 15:32N 37°44' W 122°20'0 0.0
2016-Aug-21 14:32N 37°44' W 122°20'0 0.0
2016-Aug-21 13:32N 37°44' W 122°20'0 0.0
2016-Aug-21 12:32N 37°44' W 122°20'0 0.0
2016-Aug-21 11:32N 37°44' W 122°20'0 0.1
2016-Aug-21 10:32N 37°44' W 122°20'0 0.1
2016-Aug-21 09:29N 37°44' W 122°20'0 0.1
2016-Aug-21 08:32N 37°44' W 122°20'0 0.0
2016-Aug-21 07:32N 37°44' W 122°20'0 0.0
2016-Aug-21 06:32N 37°44' W 122°20'0 0.0
2016-Aug-21 05:32N 37°44' W 122°20'0 0.1
2016-Aug-21 04:32N 37°44' W 122°20'0 0.2
2016-Aug-21 03:32N 37°44' W 122°20'0 0.1
2016-Aug-21 02:32N 37°44' W 122°20'0 0.0
2016-Aug-21 01:32N 37°44' W 122°20'0 0.0
2016-Aug-21 00:32N 37°44' W 122°20'0 0.1
2016-Aug-20 23:32N 37°44' W 122°20'0 0.1
2016-Aug-20 22:32N 37°44' W 122°20'0 0.1
2016-Aug-20 21:32N 37°44' W 122°20'0 0.0
2016-Aug-20 20:32N 37°44' W 122°20'0 0.0
2016-Aug-20 19:32N 37°44' W 122°20'0 0.0
2016-Aug-20 18:29N 37°44' W 122°20'0 0.0
2016-Aug-20 17:32N 37°44' W 122°20'0 0.0
2016-Aug-20 16:32N 37°44' W 122°20'0 0.2
2016-Aug-20 15:33N 37°44' W 122°20'8 7.6
2016-Aug-20 14:33N 37°51' W 122°25'1312.8
2016-Aug-20 13:33N 38°03' W 122°19'10 7.7
2016-Aug-20 12:19N 38°02' W 122°07'0 0.0
2016-Aug-20 11:25N 38°02' W 122°07'0 0.0
2016-Aug-20 10:31N 38°02' W 122°07'0 0.0
2016-Aug-19 07:33N 38°02' W 122°07'4 3.7
2016-Aug-19 06:32N 38°03' W 122°12'9 9.1
2016-Aug-19 05:33N 38°02' W 122°23'10 9.6
2016-Aug-19 04:34N 37°52' W 122°25'7 7.0
2016-Aug-19 03:31N 37°45' W 122°21'0 0.2
2016-Aug-19 02:31N 37°46' W 122°21'0 0.2
2016-Aug-19 01:31N 37°46' W 122°21'0 0.0
2016-Aug-19 00:31N 37°46' W 122°21'0 0.0
2016-Aug-18 23:31N 37°46' W 122°21'0 0.1
2016-Aug-18 22:31N 37°46' W 122°21'0 0.2
2016-Aug-18 21:31N 37°45' W 122°21'0 0.1
2016-Aug-18 20:31N 37°45' W 122°21'0 0.0
2016-Aug-18 19:31N 37°45' W 122°21'0 0.0
2016-Aug-18 18:31N 37°45' W 122°21'0 0.0
2016-Aug-18 17:31N 37°45' W 122°21'1 0.9
2016-Aug-18 16:33N 37°46' W 122°22'8 8.5
2016-Aug-18 15:34N 37°47' W 122°32'1110.5
2016-Aug-18 14:33N 37°43' W 122°44'9 8.5
2016-Aug-18 13:33N 37°37' W 122°53'9 8.7
2016-Aug-18 12:33N 37°33' W 123°02'9 8.3
2016-Aug-18 11:31N 37°24' W 123°03'8 8.3
2016-Aug-18 10:33N 37°17' W 122°58'8 7.9
2016-Aug-18 09:33N 37°10' W 122°54'8 8.4
2016-Aug-18 08:33N 37°02' W 122°50'8 8.1
2016-Aug-18 07:34N 36°55' W 122°45'8 8.1
2016-Aug-18 06:34N 36°47' W 122°42'8 8.0
2016-Aug-18 05:33N 36°40' W 122°38'8 8.3
2016-Aug-18 04:33N 36°32' W 122°34'8 8.1
2016-Aug-18 03:33N 36°25' W 122°29'1111.0
2016-Aug-18 02:33N 36°15' W 122°24'1111.2
2016-Aug-18 01:33N 36°05' W 122°17'1110.9
2016-Aug-18 00:33N 35°55' W 122°12'9 9.0
2016-Aug-17 23:33N 35°47' W 122°07'8 7.7
2016-Aug-17 22:33N 35°40' W 122°03'8 7.8
2016-Aug-17 21:33N 35°33' W 121°59'8 7.5
2016-Aug-17 20:33N 35°26' W 121°55'9 9.2
2016-Aug-17 19:33N 35°18' W 121°50'10 9.9
2016-Aug-17 18:33N 35°09' W 121°46'1010.1
2016-Aug-17 17:33N 35°00' W 121°39'1010.2
2016-Aug-17 16:33N 34°51' W 121°34'1211.7
2016-Aug-17 15:33N 34°40' W 121°28'1511.7
2016-Aug-17 14:19N 34°27' W 121°21'3211.5
2016-Aug-17 11:34N 33°59' W 121°04'1111.4
2016-Aug-17 10:33N 33°49' W 120°57'1110.9
2016-Aug-17 09:33N 33°39' W 120°50'1111.0
2016-Aug-17 08:33N 33°30' W 120°43'1111.1
2016-Aug-17 07:33N 33°21' W 120°36'1110.9
2016-Aug-17 06:33N 33°12' W 120°29'1111.1
2016-Aug-17 05:33N 33°02' W 120°22'1210.9
2016-Aug-17 04:28N 32°52' W 120°14'1110.8
2016-Aug-17 03:25N 32°43' W 120°07'910.9
2016-Aug-17 02:33N 32°35' W 120°01'1111.0
2016-Aug-17 01:34N 32°26' W 119°54'1211.3
2016-Aug-17 00:31N 32°16' W 119°46'1111.3
2016-Aug-16 23:33N 32°07' W 119°40'1211.6
2016-Aug-16 22:33N 31°57' W 119°32'1111.5
2016-Aug-16 21:33N 31°47' W 119°25'1211.6
2016-Aug-16 20:33N 31°37' W 119°17'1211.6
2016-Aug-16 19:34N 31°28' W 119°10'1211.7
2016-Aug-16 18:33N 31°18' W 119°03'1211.6
2016-Aug-16 17:34N 31°08' W 118°55'1211.9
2016-Aug-16 16:33N 30°59' W 118°47'1211.9
2016-Aug-16 15:33N 30°49' W 118°39'1212.2
2016-Aug-16 14:33N 30°40' W 118°30'1212.0
2016-Aug-16 13:33N 30°30' W 118°21'1211.6
2016-Aug-16 12:31N 30°21' W 118°12'1111.3
2016-Aug-16 11:31N 30°12' W 118°04'1111.5
2016-Aug-16 10:34N 30°04' W 117°56'1211.7
2016-Aug-16 09:33N 29°54' W 117°47'1311.9
2016-Aug-16 08:29N 29°44' W 117°38'2312.1
2016-Aug-16 06:33N 29°26' W 117°21'2512.4
2016-Aug-16 04:32N 29°07' W 117°03'  

Dump ship's entire track history